createdAt,value
2023-04-17T00:01:41.633Z,101167.00
2023-04-17T00:04:11.265Z,101161.00
2023-04-17T00:06:39.526Z,101166.13
2023-04-17T00:09:06.263Z,101159.16
2023-04-17T00:11:33.092Z,101159.13
2023-04-17T00:14:00.082Z,101166.38
2023-04-17T00:16:27.413Z,101163.75
2023-04-17T00:18:56.095Z,101160.38
2023-04-17T00:21:23.176Z,101160.81
2023-04-17T00:23:49.986Z,101159.97
2023-04-17T00:26:16.985Z,101161.69
2023-04-17T00:28:44.445Z,101159.63
2023-04-17T00:31:11.779Z,101164.56
2023-04-17T00:33:38.973Z,101168.28
2023-04-17T00:36:06.535Z,101167.66
2023-04-17T00:38:33.350Z,101164.56
2023-04-17T00:41:00.523Z,101172.00
2023-04-17T00:43:27.327Z,101171.97
2023-04-17T00:45:54.442Z,101183.38
2023-04-17T00:48:24.203Z,101168.28
2023-04-17T00:50:51.079Z,101176.91
2023-04-17T00:53:18.024Z,101171.53
2023-04-17T00:55:45.221Z,101171.97
2023-04-17T00:58:12.004Z,101173.81
2023-04-17T01:00:38.874Z,101179.66
2023-04-17T01:03:06.128Z,101175.31
2023-04-17T01:05:35.605Z,101175.97
2023-04-17T01:08:02.409Z,101170.16
2023-04-17T01:10:29.370Z,101168.09
2023-04-17T01:13:03.880Z,101169.94
2023-04-17T01:15:31.406Z,101164.47
2023-04-17T01:17:58.255Z,101169.44
2023-04-17T01:20:26.130Z,101171.13
2023-04-17T01:22:52.861Z,101180.00
2023-04-17T01:25:20.021Z,101176.69
2023-04-17T01:27:47.220Z,101173.63
2023-04-17T01:30:14.442Z,101174.81
2023-04-17T01:32:56.407Z,101177.28
2023-04-17T01:35:23.480Z,101178.56
2023-04-17T01:37:50.327Z,101180.22
2023-04-17T01:40:17.232Z,101178.78
2023-04-17T01:42:45.166Z,101184.28
2023-04-17T01:45:12.113Z,101177.50
2023-04-17T01:47:40.082Z,101183.66
2023-04-17T01:50:09.263Z,101180.31
2023-04-17T01:52:36.870Z,101183.31
2023-04-17T01:55:04.388Z,101178.28
2023-04-17T01:57:32.882Z,101179.75
2023-04-17T01:59:59.800Z,101175.88
2023-04-17T02:02:26.941Z,101181.44
2023-04-17T02:04:54.550Z,101191.03
2023-04-17T02:07:21.764Z,101184.34
2023-04-17T02:09:48.676Z,101185.91
2023-04-17T02:12:16.110Z,101189.75
2023-04-17T02:14:43.161Z,101188.69
2023-04-17T02:17:10.464Z,101190.47
2023-04-17T02:19:37.419Z,101193.00
2023-04-17T02:22:04.305Z,101190.41
2023-04-17T02:24:31.585Z,101194.31
2023-04-17T02:27:00.530Z,101193.09
2023-04-17T02:29:27.395Z,101201.09
2023-04-17T02:31:54.519Z,101196.59
2023-04-17T02:34:21.383Z,101200.84
2023-04-17T02:36:51.023Z,101196.38
2023-04-17T02:39:19.456Z,101205.34
2023-04-17T02:41:46.224Z,101203.50
2023-04-17T02:44:13.178Z,101209.47
2023-04-17T02:46:39.965Z,101220.53
2023-04-17T02:49:08.802Z,101219.81
2023-04-17T02:51:36.417Z,101218.31
2023-04-17T02:54:03.582Z,101211.03
2023-04-17T02:56:30.448Z,101216.84
2023-04-17T02:58:57.413Z,101209.94
2023-04-17T03:01:24.423Z,101217.97
2023-04-17T03:03:52.818Z,101217.75
2023-04-17T03:06:19.898Z,101217.41
2023-04-17T03:08:46.905Z,101223.50
2023-04-17T03:11:13.744Z,101221.16
2023-04-17T03:13:40.542Z,101224.47
2023-04-17T03:16:07.655Z,101223.16
2023-04-17T03:18:39.991Z,101231.50
2023-04-17T03:21:07.808Z,101224.19
2023-04-17T03:23:34.675Z,101233.31
2023-04-17T03:26:02.115Z,101230.09
2023-04-17T03:28:32.519Z,101233.41
2023-04-17T03:31:00.844Z,101234.47
2023-04-17T03:33:27.850Z,101239.66
2023-04-17T03:35:57.480Z,101234.78
2023-04-17T03:38:24.351Z,101238.31
2023-04-17T03:40:53.179Z,101237.81
2023-04-17T03:43:22.730Z,101246.06
2023-04-17T03:45:49.626Z,101246.50
2023-04-17T03:48:17.013Z,101241.72
2023-04-17T03:50:45.430Z,101242.75
2023-04-17T03:53:12.758Z,101242.75
2023-04-17T03:55:40.127Z,101239.53
2023-04-17T03:58:09.386Z,101246.94
2023-04-17T04:00:37.431Z,101248.38
2023-04-17T04:03:08.373Z,101243.84
2023-04-17T04:05:40.046Z,101247.56
2023-04-17T04:08:08.714Z,101255.81
2023-04-17T04:10:46.558Z,101250.06
2023-04-17T04:13:19.197Z,101259.94
2023-04-17T04:15:51.974Z,101255.75
2023-04-17T04:18:20.999Z,101256.19
2023-04-17T04:20:48.496Z,101250.50
2023-04-17T04:23:21.359Z,101259.19
2023-04-17T04:25:49.791Z,101260.28
2023-04-17T04:28:34.266Z,101264.09
2023-04-17T04:31:02.846Z,101263.09
2023-04-17T04:33:36.049Z,101265.78
2023-04-17T04:36:03.170Z,101270.31
2023-04-17T04:38:33.020Z,101269.56
2023-04-17T04:41:10.592Z,101271.31
2023-04-17T04:43:40.754Z,101276.09
2023-04-17T04:46:10.525Z,101272.16
2023-04-17T04:48:42.825Z,101283.66
2023-04-17T04:51:10.146Z,101278.22
2023-04-17T04:53:41.430Z,101285.06
2023-04-17T04:56:08.774Z,101286.00
2023-04-17T04:58:36.281Z,101290.19
2023-04-17T05:01:04.275Z,101285.44
2023-04-17T05:03:39.147Z,101291.19
2023-04-17T05:06:07.446Z,101291.63
2023-04-17T05:08:41.671Z,101293.53
2023-04-17T05:11:11.173Z,101296.16
2023-04-17T05:13:38.067Z,101306.25
2023-04-17T05:16:05.896Z,101308.88
2023-04-17T05:18:34.032Z,101309.81
2023-04-17T05:21:01.738Z,101312.38
2023-04-17T05:23:29.560Z,101324.31
2023-04-17T05:25:56.440Z,101313.50
2023-04-17T05:28:24.291Z,101325.41
2023-04-17T05:30:54.765Z,101333.19
2023-04-17T05:33:29.103Z,101331.16
2023-04-17T05:36:00.394Z,101333.56
2023-04-17T05:38:27.507Z,101339.22
2023-04-17T05:40:54.250Z,101333.31
2023-04-17T05:43:21.597Z,101339.47
2023-04-17T05:45:49.158Z,101336.25
2023-04-17T05:48:16.299Z,101336.50
2023-04-17T05:50:43.272Z,101336.91
2023-04-17T05:53:10.239Z,101342.66
2023-04-17T05:55:44.883Z,101347.38
2023-04-17T06:00:43.215Z,101356.84
2023-04-17T06:03:13.305Z,101358.97
2023-04-17T06:05:43.189Z,101359.38
2023-04-17T06:08:10.267Z,101365.88
2023-04-17T06:10:37.053Z,101371.84
2023-04-17T06:13:03.891Z,101371.63
2023-04-17T06:15:31.122Z,101381.19
2023-04-17T06:17:58.277Z,101377.75
2023-04-17T06:20:25.087Z,101379.94
2023-04-17T06:22:51.953Z,101383.63
2023-04-17T06:25:19.236Z,101387.09
2023-04-17T06:27:46.476Z,101387.84
2023-04-17T06:30:13.717Z,101383.31
2023-04-17T06:32:49.010Z,101392.81
2023-04-17T06:35:16.269Z,101385.88
2023-04-17T06:37:48.010Z,101389.31
2023-04-17T06:40:14.939Z,101391.66
2023-04-17T06:42:41.881Z,101394.28
2023-04-17T06:45:13.284Z,101400.06
2023-04-17T06:47:41.042Z,101410.25
2023-04-17T06:50:09.203Z,101401.91
2023-04-17T06:52:36.007Z,101412.06
2023-04-17T06:55:02.878Z,101415.59
2023-04-17T06:57:29.768Z,101415.44
2023-04-17T06:59:56.584Z,101423.78
2023-04-17T07:02:23.799Z,101415.69
2023-04-17T07:04:50.910Z,101428.09
2023-04-17T07:07:17.719Z,101429.34
2023-04-17T07:09:45.440Z,101429.34
2023-04-17T07:12:12.297Z,101441.63
2023-04-17T07:14:40.692Z,101430.81
2023-04-17T07:17:07.748Z,101436.84
2023-04-17T07:19:34.988Z,101434.63
2023-04-17T07:22:01.800Z,101436.91
2023-04-17T07:24:28.648Z,101439.03
2023-04-17T07:26:57.133Z,101451.00
2023-04-17T07:29:23.942Z,101450.16
2023-04-17T07:31:50.885Z,101452.13
2023-04-17T07:34:17.826Z,101462.06
2023-04-17T07:36:45.237Z,101466.72
2023-04-17T07:39:12.346Z,101468.50
2023-04-17T07:41:39.367Z,101474.47
2023-04-17T07:44:06.563Z,101478.31
2023-04-17T07:46:33.501Z,101490.41
2023-04-17T07:49:00.369Z,101490.34
2023-04-17T07:51:27.828Z,101486.56
2023-04-17T07:53:54.704Z,101497.25
2023-04-17T07:56:21.653Z,101498.50
2023-04-17T07:58:51.975Z,101502.50
2023-04-17T08:01:18.750Z,101507.22
2023-04-17T08:03:46.091Z,101517.56
2023-04-17T08:06:13.379Z,101508.25
2023-04-17T08:08:40.193Z,101514.53
2023-04-17T08:11:06.965Z,101513.63
2023-04-17T08:13:33.746Z,101524.16
2023-04-17T08:16:00.571Z,101523.94
2023-04-17T08:18:28.685Z,101520.59
2023-04-17T08:20:55.649Z,101524.75
2023-04-17T08:23:22.419Z,101527.88
2023-04-17T08:25:49.381Z,101522.81
2023-04-17T08:28:16.233Z,101526.94
2023-04-17T08:30:43.099Z,101528.63
2023-04-17T08:33:10.167Z,101524.28
2023-04-17T08:35:37.001Z,101534.28
2023-04-17T08:38:03.809Z,101537.28
2023-04-17T08:40:30.644Z,101546.38
2023-04-17T08:42:58.754Z,101537.53
2023-04-17T08:45:25.847Z,101541.28
2023-04-17T08:47:52.647Z,101542.78
2023-04-17T08:50:21.854Z,101547.75
2023-04-17T08:52:50.570Z,101548.88
2023-04-17T08:55:23.737Z,101556.28
2023-04-17T08:58:01.442Z,101561.47
2023-04-17T09:00:29.506Z,101562.91
2023-04-17T09:02:58.046Z,101560.22
2023-04-17T09:05:26.633Z,101566.94
2023-04-17T09:08:24.282Z,101570.69
2023-04-17T09:10:55.260Z,101556.31
2023-04-17T09:13:26.158Z,101563.56
2023-04-17T09:16:09.054Z,101564.88
2023-04-17T09:18:37.239Z,101570.16
2023-04-17T09:21:05.850Z,101570.69
2023-04-17T09:23:52.832Z,101572.38
2023-04-17T09:26:24.573Z,101574.41
2023-04-17T09:29:04.803Z,101578.22
2023-04-17T09:31:34.878Z,101579.53
2023-04-17T09:34:08.548Z,101579.53
2023-04-17T09:36:39.561Z,101590.97
2023-04-17T09:39:08.550Z,101584.97
2023-04-17T09:41:39.304Z,101589.84
2023-04-17T09:44:06.482Z,101593.47
2023-04-17T09:46:42.927Z,101598.22
2023-04-17T09:49:11.370Z,101596.56
2023-04-17T09:51:38.814Z,101593.63
2023-04-17T09:54:09.742Z,101610.81
2023-04-17T09:56:38.011Z,101607.19
2023-04-17T09:59:05.929Z,101609.00
2023-04-17T10:01:33.993Z,101601.22
2023-04-17T10:04:01.995Z,101604.50
2023-04-17T10:06:31.113Z,101612.66
2023-04-17T10:08:58.134Z,101599.88
2023-04-17T10:11:27.914Z,101615.22
2023-04-17T10:14:10.758Z,101611.69
2023-04-17T10:16:39.286Z,101613.63
2023-04-17T10:19:31.925Z,101622.31
2023-04-17T10:22:20.324Z,101620.22
2023-04-17T10:24:54.396Z,101617.06
2023-04-17T10:27:27.069Z,101626.13
2023-04-17T10:29:55.101Z,101622.28
2023-04-17T10:32:26.319Z,101625.81
2023-04-17T10:35:01.130Z,101630.50
2023-04-17T10:37:46.808Z,101629.97
2023-04-17T10:40:20.966Z,101632.44
2023-04-17T10:43:12.742Z,101631.22
2023-04-17T10:46:18.260Z,101632.09
2023-04-17T10:48:52.240Z,101622.00
2023-04-17T10:51:26.885Z,101622.84
2023-04-17T10:53:57.030Z,101626.59
2023-04-17T10:56:40.413Z,101630.66
2023-04-17T10:59:09.840Z,101634.97
2023-04-17T11:02:07.892Z,101641.31
2023-04-17T11:04:35.009Z,101640.50
2023-04-17T11:07:01.996Z,101640.50
2023-04-17T11:09:29.629Z,101641.69
2023-04-17T11:11:59.438Z,101643.59
2023-04-17T11:14:26.771Z,101643.47
2023-04-17T11:16:53.709Z,101638.75
2023-04-17T11:19:25.897Z,101643.22
2023-04-17T11:21:54.805Z,101643.13
2023-04-17T11:24:28.326Z,101645.28
2023-04-17T11:26:56.727Z,101645.63
2023-04-17T11:29:24.435Z,101647.69
2023-04-17T11:31:53.028Z,101648.47
2023-04-17T11:34:20.605Z,101649.09
2023-04-17T11:36:58.272Z,101650.38
2023-04-17T11:39:28.433Z,101649.75
2023-04-17T11:41:57.248Z,101654.09
2023-04-17T11:44:24.698Z,101652.31
2023-04-17T11:46:55.177Z,101648.59
2023-04-17T11:49:28.855Z,101654.88
2023-04-17T11:51:57.707Z,101651.09
2023-04-17T11:54:31.602Z,101655.69
2023-04-17T11:57:01.661Z,101655.94
2023-04-17T11:59:36.922Z,101660.66
2023-04-17T12:02:06.851Z,101660.25
2023-04-17T12:04:35.058Z,101667.31
2023-04-17T12:07:03.328Z,101665.38
2023-04-17T12:09:33.774Z,101668.53
2023-04-17T12:12:03.598Z,101667.31
2023-04-17T12:14:30.416Z,101669.94
2023-04-17T12:16:57.524Z,101673.47
2023-04-17T12:19:26.876Z,101677.41
2023-04-17T12:21:54.634Z,101672.91
2023-04-17T12:24:24.206Z,101679.53
2023-04-17T12:26:51.818Z,101683.94
2023-04-17T12:29:22.041Z,101681.88
2023-04-17T12:31:56.770Z,101683.72
2023-04-17T12:34:25.936Z,101687.63
2023-04-17T12:36:54.087Z,101689.84
2023-04-17T12:39:21.007Z,101683.13
2023-04-17T12:41:47.873Z,101689.41
2023-04-17T12:44:14.813Z,101691.31
2023-04-17T12:46:42.159Z,101689.91
2023-04-17T12:49:09.108Z,101693.53
2023-04-17T12:51:38.158Z,101687.28
2023-04-17T12:54:05.292Z,101695.28
2023-04-17T12:56:32.442Z,101695.69
2023-04-17T12:59:02.126Z,101705.59
2023-04-17T13:01:30.093Z,101702.75
2023-04-17T13:03:57.291Z,101698.41
2023-04-17T13:06:24.459Z,101707.03
2023-04-17T13:08:51.204Z,101702.13
2023-04-17T13:11:18.065Z,101698.84
2023-04-17T13:13:45.161Z,101711.19
2023-04-17T13:16:12.061Z,101720.28
2023-04-17T13:18:39.021Z,101718.81
2023-04-17T13:21:06.612Z,101715.28
2023-04-17T13:23:33.386Z,101708.84
2023-04-17T13:26:00.358Z,101710.41
2023-04-17T13:28:27.188Z,101713.38
2023-04-17T13:30:54.071Z,101704.16
2023-04-17T13:33:20.864Z,101708.97
2023-04-17T13:35:48.042Z,101710.50
2023-04-17T13:38:14.819Z,101711.13
2023-04-17T13:40:41.659Z,101713.78
2023-04-17T13:43:09.216Z,101718.13
2023-04-17T13:45:36.273Z,101719.41
2023-04-17T13:48:03.151Z,101717.16
2023-04-17T13:50:30.348Z,101706.59
2023-04-17T13:52:57.123Z,101717.47
2023-04-17T13:55:24.184Z,101717.47
2023-04-17T13:57:51.808Z,101712.09
2023-04-17T14:00:18.967Z,101713.81
2023-04-17T14:02:45.963Z,101713.16
2023-04-17T14:05:12.981Z,101708.94
2023-04-17T14:07:39.826Z,101712.47
2023-04-17T14:10:07.917Z,101719.38
2023-04-17T14:12:34.727Z,101718.72
2023-04-17T14:15:01.546Z,101712.50
2023-04-17T14:17:29.013Z,101715.53
2023-04-17T14:19:55.935Z,101719.63
2023-04-17T14:22:22.732Z,101715.22
2023-04-17T14:24:49.565Z,101713.09
2023-04-17T14:27:16.562Z,101718.22
2023-04-17T14:29:43.473Z,101718.84
2023-04-17T14:32:10.296Z,101712.69
2023-04-17T14:34:37.080Z,101722.00
2023-04-17T14:37:03.848Z,101721.59
2023-04-17T14:39:31.625Z,101719.13
2023-04-17T14:42:00.570Z,101719.81
2023-04-17T14:44:28.832Z,101721.75
2023-04-17T14:46:57.130Z,101719.94
2023-04-17T14:49:24.274Z,101719.91
2023-04-17T14:51:51.182Z,101719.72
2023-04-17T14:54:17.997Z,101725.75
2023-04-17T14:56:44.846Z,101724.94
2023-04-17T14:59:12.338Z,101722.53
2023-04-17T15:01:39.264Z,101732.88
2023-04-17T15:04:06.804Z,101730.97
2023-04-17T15:06:33.759Z,101726.50
2023-04-17T15:09:00.644Z,101728.34
2023-04-17T15:11:27.361Z,101722.44
2023-04-17T15:13:54.156Z,101728.41
2023-04-17T15:16:21.013Z,101721.88
2023-04-17T15:18:48.132Z,101723.34
2023-04-17T15:21:16.324Z,101721.94
2023-04-17T15:23:43.306Z,101714.81
2023-04-17T15:26:10.213Z,101729.22
2023-04-17T15:28:37.060Z,101718.09
2023-04-17T15:31:03.862Z,101728.72
2023-04-17T15:33:31.073Z,101725.47
2023-04-17T15:35:58.731Z,101726.53
2023-04-17T15:38:26.671Z,101733.53
2023-04-17T15:40:54.049Z,101725.03
2023-04-17T15:43:21.028Z,101727.16
2023-04-17T15:45:51.293Z,101728.44
2023-04-17T15:48:18.129Z,101725.66
2023-04-17T15:50:44.877Z,101736.97
2023-04-17T15:53:13.176Z,101733.63
2023-04-17T15:55:41.249Z,101728.94
2023-04-17T15:58:08.456Z,101727.34
2023-04-17T16:00:35.325Z,101725.34
2023-04-17T16:03:02.279Z,101723.00
2023-04-17T16:05:30.045Z,101732.94
2023-04-17T16:07:57.047Z,101719.66
2023-04-17T16:10:23.891Z,101724.03
2023-04-17T16:12:50.717Z,101725.09
2023-04-17T16:15:17.786Z,101724.56
2023-04-17T16:17:45.814Z,101723.25
2023-04-17T16:20:13.055Z,101723.31
2023-04-17T16:22:40.450Z,101724.63
2023-04-17T16:25:07.712Z,101729.19
2023-04-17T16:27:34.675Z,101720.16
2023-04-17T16:30:03.114Z,101726.81
2023-04-17T16:32:31.853Z,101734.91
2023-04-17T16:34:58.996Z,101733.75
2023-04-17T16:37:26.105Z,101738.44
2023-04-17T16:39:52.933Z,101738.78
2023-04-17T16:42:19.884Z,101742.13
2023-04-17T16:44:46.798Z,101743.66
2023-04-17T16:47:14.608Z,101744.09
2023-04-17T16:49:44.166Z,101751.03
2023-04-17T16:52:12.875Z,101756.09
2023-04-17T16:54:39.702Z,101756.16
2023-04-17T16:57:06.607Z,101755.69
2023-04-17T16:59:33.393Z,101762.28
2023-04-17T17:02:02.578Z,101764.28
2023-04-17T17:04:30.075Z,101758.09
2023-04-17T17:06:57.508Z,101749.22
2023-04-17T17:09:26.099Z,101755.25
2023-04-17T17:11:52.991Z,101759.59
2023-04-17T17:14:19.850Z,101756.69
2023-04-17T17:16:46.705Z,101761.53
2023-04-17T17:19:14.852Z,101753.69
2023-04-17T17:21:41.986Z,101753.97
2023-04-17T17:24:08.956Z,101748.91
2023-04-17T17:26:37.136Z,101757.91
2023-04-17T17:29:04.784Z,101759.19
2023-04-17T17:31:33.648Z,101758.16
2023-04-17T17:34:12.020Z,101754.16
2023-04-17T17:36:49.472Z,101762.03
2023-04-17T17:39:16.635Z,101755.63
2023-04-17T17:41:45.727Z,101761.59
2023-04-17T17:44:14.541Z,101761.47
2023-04-17T17:46:41.662Z,101758.06
2023-04-17T17:49:08.601Z,101757.81
2023-04-17T17:51:35.538Z,101758.94
2023-04-17T17:54:02.408Z,101765.56
2023-04-17T17:56:29.136Z,101764.66
2023-04-17T17:58:56.078Z,101777.91
2023-04-17T18:01:25.030Z,101779.25
2023-04-17T18:03:53.125Z,101780.97
2023-04-17T18:06:20.885Z,101783.47
2023-04-17T18:08:47.907Z,101781.84
2023-04-17T18:11:14.822Z,101783.88
2023-04-17T18:13:41.715Z,101796.59
2023-04-17T18:16:08.605Z,101790.91
2023-04-17T18:18:35.647Z,101791.59
2023-04-17T18:21:09.455Z,101795.38
2023-04-17T18:23:36.454Z,101793.50
2023-04-17T18:26:03.903Z,101796.34
2023-04-17T18:28:30.854Z,101795.19
2023-04-17T18:30:57.665Z,101800.69
2023-04-17T18:33:24.826Z,101803.16
2023-04-17T18:35:51.949Z,101808.97
2023-04-17T18:38:18.998Z,101810.81
2023-04-17T18:40:45.943Z,101817.34
2023-04-17T18:43:12.948Z,101812.25
2023-04-17T18:45:39.715Z,101819.84
2023-04-17T18:48:06.633Z,101824.06
2023-04-17T18:50:34.200Z,101815.81
2023-04-17T18:53:01.087Z,101819.59
2023-04-17T18:55:27.930Z,101824.59
2023-04-17T18:57:54.640Z,101822.00
2023-04-17T19:00:21.660Z,101818.72
2023-04-17T19:02:48.837Z,101827.19
2023-04-17T19:05:15.906Z,101823.97
2023-04-17T19:07:42.823Z,101825.31
2023-04-17T19:10:10.216Z,101833.72
2023-04-17T19:12:37.001Z,101827.31
2023-04-17T19:15:04.828Z,101834.69
2023-04-17T19:17:31.623Z,101835.81
2023-04-17T19:19:58.436Z,101838.72
2023-04-17T19:22:25.353Z,101841.38
2023-04-17T19:24:53.051Z,101850.38
2023-04-17T19:27:20.443Z,101843.28
2023-04-17T19:29:47.644Z,101850.78
2023-04-17T19:32:16.785Z,101856.28
2023-04-17T19:34:44.417Z,101854.88
2023-04-17T19:37:11.373Z,101853.59
2023-04-17T19:39:38.312Z,101857.94
2023-04-17T19:42:05.864Z,101870.16
2023-04-17T19:44:32.757Z,101863.97
2023-04-17T19:46:59.798Z,101859.06
2023-04-17T19:49:26.612Z,101863.16
2023-04-17T19:51:53.476Z,101861.19
2023-04-17T19:54:20.271Z,101867.06
2023-04-17T19:56:47.140Z,101870.47
2023-04-17T19:59:14.246Z,101866.13
2023-04-17T20:01:43.580Z,101874.00
2023-04-17T20:04:10.985Z,101874.34
2023-04-17T20:06:39.533Z,101870.56
2023-04-17T20:09:06.748Z,101875.66
2023-04-17T20:11:34.157Z,101873.63
2023-04-17T20:14:01.006Z,101878.22
2023-04-17T20:16:28.053Z,101883.59
2023-04-17T20:18:56.816Z,101882.78
2023-04-17T20:21:23.814Z,101884.44
2023-04-17T20:23:50.750Z,101883.53
2023-04-17T20:26:17.640Z,101892.41
2023-04-17T20:28:44.434Z,101893.88
2023-04-17T20:31:11.297Z,101891.91
2023-04-17T20:33:38.178Z,101886.34
2023-04-17T20:36:05.838Z,101889.16
2023-04-17T20:38:32.677Z,101894.78
2023-04-17T20:40:59.403Z,101892.47
2023-04-17T20:43:26.297Z,101892.09
2023-04-17T20:45:53.191Z,101902.84
2023-04-17T20:48:20.269Z,101890.25
2023-04-17T20:50:47.209Z,101903.47
2023-04-17T20:53:14.048Z,101906.84
2023-04-17T20:55:41.120Z,101906.25
2023-04-17T20:58:07.999Z,101910.84
2023-04-17T21:00:34.854Z,101903.63
2023-04-17T21:03:02.108Z,101904.75
2023-04-17T21:05:29.345Z,101905.59
2023-04-17T21:07:57.777Z,101905.38
2023-04-17T21:10:24.772Z,101904.91
2023-04-17T21:12:51.624Z,101913.91
2023-04-17T21:15:18.618Z,101915.97
2023-04-17T21:17:47.758Z,101914.72
2023-04-17T21:20:15.015Z,101918.53
2023-04-17T21:22:41.875Z,101925.63
2023-04-17T21:25:09.049Z,101920.09
2023-04-17T21:27:35.880Z,101924.63
2023-04-17T21:30:03.979Z,101926.88
2023-04-17T21:32:30.863Z,101928.22
2023-04-17T21:34:57.734Z,101934.19
2023-04-17T21:37:24.736Z,101934.31
2023-04-17T21:39:51.586Z,101932.53
2023-04-17T21:42:18.962Z,101938.56
2023-04-17T21:44:45.813Z,101938.72
2023-04-17T21:47:14.569Z,101936.06
2023-04-17T21:49:41.456Z,101940.94
2023-04-17T21:52:08.339Z,101942.44
2023-04-17T21:54:35.367Z,101943.66
2023-04-17T21:57:02.313Z,101943.00
2023-04-17T21:59:29.289Z,101952.84
2023-04-17T22:01:56.240Z,101946.31
2023-04-17T22:04:23.138Z,101960.22
2023-04-17T22:06:52.231Z,101955.69
2023-04-17T22:09:20.008Z,101961.88
2023-04-17T22:11:47.677Z,101954.19
2023-04-17T22:14:15.839Z,101962.72
2023-04-17T22:16:43.217Z,101963.38
2023-04-17T22:19:10.416Z,101963.91
2023-04-17T22:21:37.401Z,101967.06
2023-04-17T22:24:04.590Z,101960.69
2023-04-17T22:26:31.743Z,101968.25
2023-04-17T22:28:58.619Z,101964.38
2023-04-17T22:31:25.553Z,101970.25
2023-04-17T22:33:52.476Z,101965.06
2023-04-17T22:36:19.292Z,101964.03
2023-04-17T22:38:46.120Z,101963.38
2023-04-17T22:41:12.941Z,101959.34
2023-04-17T22:43:39.736Z,101960.84
2023-04-17T22:46:06.615Z,101967.19
2023-04-17T22:48:35.064Z,101967.72
2023-04-17T22:51:02.480Z,101976.38
2023-04-17T22:53:29.709Z,101983.78
2023-04-17T22:56:03.124Z,101984.44
2023-04-17T22:58:31.106Z,101978.09
2023-04-17T23:00:58.089Z,101982.22
2023-04-17T23:03:25.041Z,101980.06
2023-04-17T23:05:54.711Z,101986.06
2023-04-17T23:08:22.050Z,101984.38
2023-04-17T23:11:00.003Z,101993.06
2023-04-17T23:13:27.763Z,101989.59
2023-04-17T23:15:54.627Z,101994.72
2023-04-17T23:18:21.520Z,101989.03
2023-04-17T23:20:48.321Z,101998.41
2023-04-17T23:23:15.594Z,101998.25
2023-04-17T23:25:42.505Z,101999.06
2023-04-17T23:28:10.040Z,102000.25
2023-04-17T23:30:36.915Z,101992.38
2023-04-17T23:33:04.108Z,101999.91
2023-04-17T23:35:30.984Z,101999.69
2023-04-17T23:37:57.952Z,102005.88
2023-04-17T23:40:25.818Z,102008.59
2023-04-17T23:42:53.121Z,101998.69
2023-04-17T23:45:20.005Z,102008.25
2023-04-17T23:47:46.957Z,102012.59
2023-04-17T23:50:13.956Z,102005.38
2023-04-17T23:52:40.771Z,102007.94
2023-04-17T23:55:08.135Z,102015.28
2023-04-17T23:57:37.759Z,102010.09
